Time;durP1;ratioP1;P1;durP2;ratioP2;P2;SDS_P1;SDS_P2;PMS_P1;PMS_P2;Temp;Humidity;BMP_temperature;BMP_pressure;BME280_temperature;BME280_humidity;BME280_pressure;Samples;Min_cycle;Max_cycle;Signal;HPM_P1;HPM_P2
2022/10/09 00:04:19;;;;;;;;;;;;;;;;;;;;;
2022/10/09 00:07:11;;;;;;;8.70;3.10;;;;;;;;;;5040066;28;20041;-87
2022/10/09 00:09:53;;;;;;;13.77;3.33;;;;;;;;;;5036972;28;20045;-86
2022/10/09 00:12:27;;;;;;;13.43;3.75;;;;;;;;;;5035171;28;20626;-87
2022/10/09 00:15:04;;;;;;;10.95;3.28;;;;;;;;;;5035249;28;20041;-87
2022/10/09 00:20:16;;;;;;;13.63;3.15;;;;;;;;;;4992704;28;20056;-86
2022/10/09 00:23:02;;;;;;;11.38;3.85;;;;;;;;;;5040899;28;20075;-87
2022/10/09 00:25:28;;;;;;;11.20;3.63;;;;;;;;;;5039473;28;20044;-86
2022/10/09 00:28:00;;;;;;;10.82;4.07;;;;;;;;;;5040743;28;20047;-86
2022/10/09 00:30:30;;;;;;;16.60;3.60;;;;;;;;;;5035379;28;20055;-87
2022/10/09 00:36:01;;;;;;;7.47;3.83;;;;;;;;;;5031614;28;20064;-86
2022/10/09 00:38:34;;;;;;;12.10;4.47;;;;;;;;;;5053371;28;20045;-87
2022/10/09 00:41:15;;;;;;;10.35;3.83;;;;;;;;;;5038822;28;20045;-87
2022/10/09 00:46:52;;;;;;;13.20;3.63;;;;;;;;;;5035980;28;20110;-87
2022/10/09 00:49:36;;;;;;;8.85;3.08;;;;;;;;;;5037880;28;20045;-87
2022/10/09 00:52:04;;;;;;;10.18;3.88;;;;;;;;;;5037679;28;20128;-86
2022/10/09 00:54:45;;;;;;;13.93;3.97;;;;;;;;;;5040664;28;20124;-87
2022/10/09 01:00:32;;;;;;;11.65;3.53;;;;;;;;;;5049002;28;20053;-86
2022/10/09 01:03:08;;;;;;;14.27;4.38;;;;;;;;;;4999010;28;20494;-87
2022/10/09 01:05:56;;;;;;;8.38;3.03;;;;;;;;;;5035637;28;20053;-87
2022/10/09 01:08:30;;;;;;;12.30;3.70;;;;;;;;;;5037304;28;20052;-87
2022/10/09 01:11:16;;;;;;;14.73;3.58;;;;;;;;;;5039321;28;20140;-86
2022/10/09 01:13:46;;;;;;;14.15;3.97;;;;;;;;;;5037379;28;20052;-87
2022/10/09 01:25:18;;;;;;;8.95;3.10;;;;;;;;;;5025277;28;20052;-86
2022/10/09 01:28:03;;;;;;;14.82;4.95;;;;;;;;;;5030921;28;20049;-87
2022/10/09 01:30:32;;;;;;;10.80;3.55;;;;;;;;;;5037868;28;20044;-87
2022/10/09 01:33:10;;;;;;;13.70;4.43;;;;;;;;;;5041169;28;20485;-86
2022/10/09 01:35:37;;;;;;;10.52;3.90;;;;;;;;;;5034572;28;20045;-86
2022/10/09 01:38:04;;;;;;;14.60;4.18;;;;;;;;;;5038041;28;20044;-86
2022/10/09 01:43:36;;;;;;;13.05;4.35;;;;;;;;;;5061177;28;20048;-86
2022/10/09 01:46:24;;;;;;;13.25;4.35;;;;;;;;;;5040314;28;20040;-87
2022/10/09 01:48:54;;;;;;;20.45;3.75;;;;;;;;;;5040329;28;20032;-86
2022/10/09 01:51:24;;;;;;;12.32;4.00;;;;;;;;;;5038360;28;20029;-86
2022/10/09 01:54:09;;;;;;;11.55;4.05;;;;;;;;;;5042532;28;20120;-87
2022/10/09 01:56:38;;;;;;;11.45;3.67;;;;;;;;;;5040499;28;20045;-86
2022/10/09 02:02:11;;;;;;;9.38;3.63;;;;;;;;;;5040154;28;20132;-87
2022/10/09 02:07:30;;;;;;;11.38;3.83;;;;;;;;;;5040129;28;20501;-86
2022/10/09 02:13:12;;;;;;;15.95;4.93;;;;;;;;;;5038065;28;20059;-87
2022/10/09 02:15:48;;;;;;;11.77;3.72;;;;;;;;;;5036988;28;20048;-87
2022/10/09 02:18:33;;;;;;;17.17;3.90;;;;;;;;;;5042843;28;20400;-87
2022/10/09 02:21:01;;;;;;;15.25;3.83;;;;;;;;;;5036005;28;20052;-87
2022/10/09 02:23:31;;;;;;;15.82;4.28;;;;;;;;;;5039665;28;20045;-87
2022/10/09 02:25:58;;;;;;;14.27;4.07;;;;;;;;;;5037179;28;20116;-87
2022/10/09 02:31:32;;;;;;;7.40;3.50;;;;;;;;;;4935988;28;20055;-87
2022/10/09 02:33:59;;;;;;;13.00;4.22;;;;;;;;;;4986079;28;20049;-87
2022/10/09 02:36:49;;;;;;;12.98;4.45;;;;;;;;;;5036332;28;20049;-87
2022/10/09 02:39:30;;;;;;;16.42;4.40;;;;;;;;;;5034920;28;20052;-87
2022/10/09 02:42:12;;;;;;;8.88;3.83;;;;;;;;;;5036791;28;20049;-86
2022/10/09 02:44:57;;;;;;;9.13;3.88;;;;;;;;;;5036857;28;20128;-88
2022/10/09 02:47:47;;;;;;;15.05;4.30;;;;;;;;;;5033238;28;20932;-86
2022/10/09 02:50:17;;;;;;;11.48;3.88;;;;;;;;;;5032586;28;20049;-87
2022/10/09 02:52:52;;;;;;;16.75;5.00;;;;;;;;;;5039918;28;20068;-87
2022/10/09 02:55:18;;;;;;;;;;;;;;;;;;5039154;28;20915;-85
2022/10/09 02:57:54;;;;;;;14.27;4.32;;;;;;;;;;5033373;28;19925;-86
2022/10/09 03:00:20;;;;;;;12.07;4.32;;;;;;;;;;5032660;28;20042;-86
2022/10/09 03:02:53;;;;;;;9.13;3.83;;;;;;;;;;5036005;28;20064;-86
2022/10/09 03:05:33;;;;;;;8.95;4.30;;;;;;;;;;5039512;28;20049;-85
2022/10/09 03:08:23;;;;;;;17.35;4.93;;;;;;;;;;5035559;28;20052;-85
2022/10/09 03:10:50;;;;;;;13.98;5.25;;;;;;;;;;5019223;28;20049;-86
2022/10/09 03:13:27;;;;;;;10.07;4.65;;;;;;;;;;5039361;28;20061;-86
2022/10/09 03:16:16;;;;;;;8.70;4.72;;;;;;;;;;5033372;28;20065;-85
2022/10/09 03:18:52;;;;;;;15.93;4.40;;;;;;;;;;5035888;28;20053;-87
2022/10/09 03:21:38;;;;;;;11.93;5.20;;;;;;;;;;5035492;28;20060;-86
2022/10/09 03:24:09;;;;;;;10.85;4.82;;;;;;;;;;5032542;28;20140;-86
2022/10/09 03:26:36;;;;;;;8.98;4.75;;;;;;;;;;5036290;28;20045;-86
2022/10/09 03:29:04;;;;;;;13.55;4.82;;;;;;;;;;5037557;28;20134;-85
2022/10/09 03:34:37;;;;;;;12.32;5.00;;;;;;;;;;5040364;28;20037;-86
2022/10/09 03:37:17;;;;;;;;;;;;;;;;;;;;;
2022/10/09 03:39:52;;;;;;;19.23;5.35;;;;;;;;;;5023361;28;20045;-86
2022/10/09 03:42:19;;;;;;;19.50;5.03;;;;;;;;;;5036401;28;20056;-86
2022/10/09 03:44:46;;;;;;;10.43;4.35;;;;;;;;;;5042479;28;20056;-86
2022/10/09 03:47:32;;;;;;;9.90;4.55;;;;;;;;;;5036314;28;20526;-86
2022/10/09 03:50:00;;;;;;;16.00;4.78;;;;;;;;;;5037351;28;21511;-86
2022/10/09 03:52:27;;;;;;;12.30;4.15;;;;;;;;;;5043781;28;20040;-86
2022/10/09 03:55:09;;;;;;;10.55;4.63;;;;;;;;;;5042839;28;20200;-86
2022/10/09 03:57:51;;;;;;;11.77;4.70;;;;;;;;;;5040145;28;20223;-86
2022/10/09 04:00:19;;;;;;;10.52;4.47;;;;;;;;;;5039891;28;20049;-86
2022/10/09 04:02:46;;;;;;;9.45;4.38;;;;;;;;;;5042558;28;20045;-86
2022/10/09 04:05:38;;;;;;;17.17;5.40;;;;;;;;;;5041116;28;20060;-86
2022/10/09 04:08:07;;;;;;;9.15;4.78;;;;;;;;;;5043050;28;20064;-86
2022/10/09 04:10:36;;;;;;;12.75;4.72;;;;;;;;;;5069815;28;20189;-86
2022/10/09 04:13:06;;;;;;;11.27;4.43;;;;;;;;;;5044367;28;20041;-86
2022/10/09 04:16:08;;;;;;;;;;;;;;;;;;;;;
2022/10/09 04:18:38;;;;;;;8.82;4.57;;;;;;;;;;5054095;28;20049;-86
2022/10/09 04:21:05;;;;;;;8.68;4.50;;;;;;;;;;5040404;28;20094;-87
2022/10/09 04:23:39;;;;;;;11.52;4.75;;;;;;;;;;5040043;28;20048;-86
2022/10/09 04:26:41;;;;;;;;;;;;;;;;;;;;;
2022/10/09 04:29:11;;;;;;;9.10;5.13;;;;;;;;;;5022497;28;20052;-87
2022/10/09 04:32:04;;;;;;;13.10;5.15;;;;;;;;;;5037078;28;20033;-86
2022/10/09 04:34:41;;;;;;;;;;;;;;;;;;;;;
2022/10/09 04:40:26;;;;;;;9.38;4.07;;;;;;;;;;5040583;28;20405;-85
2022/10/09 04:42:58;;;;;;;8.43;4.78;;;;;;;;;;5039764;28;20388;-86
2022/10/09 04:45:39;;;;;;;11.68;4.55;;;;;;;;;;5037273;28;21682;-87
2022/10/09 04:48:29;;;;;;;17.10;5.30;;;;;;;;;;5069346;28;20061;-86
2022/10/09 04:51:17;;;;;;;8.40;4.55;;;;;;;;;;4993757;28;20049;-86
2022/10/09 04:54:22;;;;;;;12.65;5.60;;;;;;;;;;5038572;28;20064;-86
2022/10/09 04:56:52;;;;;;;9.77;4.22;;;;;;;;;;4938898;28;20102;-85
2022/10/09 04:59:52;;;;;;;;;;;;;;;;;;;;;
2022/10/09 05:02:57;;;;;;;11.90;4.78;;;;;;;;;;5041725;28;20045;-85
2022/10/09 05:05:36;;;;;;;11.38;4.75;;;;;;;;;;5042589;28;20048;-85
2022/10/09 05:11:20;;;;;;;6.15;4.22;;;;;;;;;;5004011;28;20319;-86
2022/10/09 05:14:15;;;;;;;15.20;5.00;;;;;;;;;;5036062;28;20115;-86
2022/10/09 05:17:03;;;;;;;;;;;;;;;;;;;;;
2022/10/09 05:19:36;;;;;;;15.70;4.60;;;;;;;;;;5031056;28;20081;-86
2022/10/09 05:22:29;;;;;;;12.55;4.95;;;;;;;;;;5038941;28;20036;-85
2022/10/09 05:25:02;;;;;;;8.57;4.28;;;;;;;;;;5048538;28;20133;-85
2022/10/09 05:28:03;;;;;;;;;;;;;;;;;;;;;
2022/10/09 05:30:40;;;;;;;10.02;4.53;;;;;;;;;;5029358;28;20045;-86
2022/10/09 05:33:07;;;;;;;9.43;4.72;;;;;;;;;;5039696;28;20136;-85
2022/10/09 05:35:49;;;;;;;9.45;4.43;;;;;;;;;;5039212;28;20048;-86
2022/10/09 05:38:31;;;;;;;11.38;4.53;;;;;;;;;;5039435;28;20116;-86
2022/10/09 05:41:03;;;;;;;8.73;4.43;;;;;;;;;;5017494;28;20060;-85
2022/10/09 05:49:42;;;;;;;7.57;3.72;;;;;;;;;;5031871;28;20132;-86
2022/10/09 05:55:16;;;;;;;9.70;4.55;;;;;;;;;;5034043;28;20218;-86
2022/10/09 05:58:04;;;;;;;11.50;5.00;;;;;;;;;;5053568;28;20061;-85
2022/10/09 06:00:33;;;;;;;9.10;3.60;;;;;;;;;;5048175;28;20052;-86
2022/10/09 06:03:29;;;;;;;9.52;4.03;;;;;;;;;;5036178;28;20124;-86
2022/10/09 06:06:40;;;;;;;8.88;4.15;;;;;;;;;;5036345;28;20044;-85
2022/10/09 06:09:24;;;;;;;;;;;;;;;;;;;;;
2022/10/09 06:11:52;;;;;;;9.32;4.28;;;;;;;;;;4961782;28;20522;-86
2022/10/09 06:17:53;;;;;;;9.27;4.88;;;;;;;;;;5025582;28;20053;-87
2022/10/09 06:20:34;;;;;;;9.10;4.68;;;;;;;;;;5038751;28;20090;-86
2022/10/09 06:26:16;;;;;;;10.40;5.07;;;;;;;;;;5050780;28;20758;-85
2022/10/09 06:29:41;;;;;;;12.18;4.93;;;;;;;;;;5042669;28;20049;-84
2022/10/09 06:32:35;;;;;;;8.93;4.15;;;;;;;;;;5040474;28;20135;-86
2022/10/09 06:38:18;;;;;;;7.80;4.70;;;;;;;;;;5035305;28;20056;-86
2022/10/09 06:44:07;;;;;;;;;;;;;;;;;;;;;
2022/10/09 06:46:41;;;;;;;8.75;4.30;;;;;;;;;;5032217;28;20179;-86
2022/10/09 06:52:38;;;;;;;10.60;4.75;;;;;;;;;;5033127;28;20070;-86
2022/10/09 06:55:07;;;;;;;8.57;4.53;;;;;;;;;;5041446;28;20048;-86
2022/10/09 06:57:36;;;;;;;9.23;4.97;;;;;;;;;;5066694;28;20053;-85
2022/10/09 07:00:06;;;;;;;10.45;5.28;;;;;;;;;;5038626;28;20054;-86
2022/10/09 07:02:33;;;;;;;7.93;4.28;;;;;;;;;;5035401;28;20048;-86
2022/10/09 07:04:59;;;;;;;8.15;4.18;;;;;;;;;;5042761;28;20052;-86
2022/10/09 07:07:26;;;;;;;9.02;4.63;;;;;;;;;;5036182;28;20155;-86
2022/10/09 07:09:53;;;;;;;8.80;4.78;;;;;;;;;;5041309;28;20045;-87
2022/10/09 07:12:21;;;;;;;7.88;4.95;;;;;;;;;;5045984;28;20033;-85
2022/10/09 07:14:47;;;;;;;8.77;4.45;;;;;;;;;;5039223;28;20090;-86
2022/10/09 07:17:14;;;;;;;12.25;5.55;;;;;;;;;;5044298;28;20111;-86
2022/10/09 07:19:41;;;;;;;11.98;5.53;;;;;;;;;;5044899;28;20037;-86
2022/10/09 07:22:10;;;;;;;14.73;5.10;;;;;;;;;;5041285;28;20045;-87
2022/10/09 07:24:38;;;;;;;9.70;5.45;;;;;;;;;;5038871;28;20087;-85
2022/10/09 07:27:05;;;;;;;10.27;5.47;;;;;;;;;;5039970;28;20148;-86
2022/10/09 07:29:34;;;;;;;6.85;4.93;;;;;;;;;;5052137;28;20041;-86
2022/10/09 07:32:01;;;;;;;10.27;5.38;;;;;;;;;;5041230;28;20472;-86
2022/10/09 07:34:27;;;;;;;12.40;7.00;;;;;;;;;;5052765;28;20053;-87
2022/10/09 07:36:55;;;;;;;19.55;6.50;;;;;;;;;;5059130;28;20452;-85
2022/10/09 07:39:22;;;;;;;16.52;7.70;;;;;;;;;;5047975;28;20049;-87
2022/10/09 07:41:52;;;;;;;13.57;7.32;;;;;;;;;;5044992;28;20037;-88
2022/10/09 07:44:19;;;;;;;16.23;8.75;;;;;;;;;;5041876;28;20041;-87
2022/10/09 07:46:51;;;;;;;13.90;8.57;;;;;;;;;;5043417;28;20114;-87
2022/10/09 07:49:18;;;;;;;19.13;8.32;;;;;;;;;;5043223;28;20061;-87
2022/10/09 07:51:45;;;;;;;22.10;10.77;;;;;;;;;;5058496;28;20064;-87
2022/10/09 07:54:11;;;;;;;22.40;10.27;;;;;;;;;;5038173;28;20125;-86
2022/10/09 07:56:41;;;;;;;27.52;12.23;;;;;;;;;;5039175;28;22118;-87
2022/10/09 07:59:08;;;;;;;17.55;9.60;;;;;;;;;;5040580;28;20037;-87
2022/10/09 08:01:37;;;;;;;25.25;9.60;;;;;;;;;;5044561;28;20061;-87
2022/10/09 08:04:05;;;;;;;29.13;11.30;;;;;;;;;;5036949;28;20030;-87
2022/10/09 08:06:32;;;;;;;26.30;12.15;;;;;;;;;;5041494;28;20064;-86
2022/10/09 08:09:00;;;;;;;27.77;11.02;;;;;;;;;;5054722;28;20069;-86
2022/10/09 08:11:29;;;;;;;24.77;9.73;;;;;;;;;;5039044;28;20140;-88
2022/10/09 08:13:58;;;;;;;18.65;9.57;;;;;;;;;;5041580;28;20049;-87
2022/10/09 08:16:27;;;;;;;29.13;8.73;;;;;;;;;;5057020;28;20064;-86
2022/10/09 08:21:45;;;;;;;17.30;7.20;;;;;;;;;;5042527;28;20138;-87
2022/10/09 08:24:12;;;;;;;31.35;9.15;;;;;;;;;;5045010;28;20116;-87
2022/10/09 08:26:39;;;;;;;25.90;8.30;;;;;;;;;;5052845;28;20292;-86
2022/10/09 08:29:07;;;;;;;20.20;7.45;;;;;;;;;;5036721;28;20118;-87
2022/10/09 08:31:37;;;;;;;19.05;7.55;;;;;;;;;;5056355;28;20072;-86
2022/10/09 08:34:06;;;;;;;23.92;7.88;;;;;;;;;;5044113;28;20079;-86
2022/10/09 08:36:35;;;;;;;25.05;8.27;;;;;;;;;;5040820;28;20469;-86
2022/10/09 08:39:14;;;;;;;26.23;8.57;;;;;;;;;;5043554;28;20131;-87
2022/10/09 08:41:43;;;;;;;19.00;7.90;;;;;;;;;;5042664;28;20045;-87
2022/10/09 08:44:23;;;;;;;23.55;7.78;;;;;;;;;;5065162;28;20056;-87
2022/10/09 08:46:58;;;;;;;20.00;7.57;;;;;;;;;;5039921;28;20038;-86
2022/10/09 08:49:29;;;;;;;26.58;8.25;;;;;;;;;;5073579;28;20123;-86
2022/10/09 08:51:57;;;;;;;22.40;7.22;;;;;;;;;;5042536;28;20559;-87
2022/10/09 08:54:30;;;;;;;23.20;7.63;;;;;;;;;;5043283;28;20052;-87
2022/10/09 08:57:04;;;;;;;22.90;8.20;;;;;;;;;;5053771;28;20405;-86
2022/10/09 08:59:37;;;;;;;23.90;8.32;;;;;;;;;;5038030;28;20520;-86
2022/10/09 09:02:13;;;;;;;25.08;9.82;;;;;;;;;;5041100;28;20053;-85
2022/10/09 09:04:58;;;;;;;25.05;9.40;;;;;;;;;;5036698;28;20069;-86
2022/10/09 09:07:29;;;;;;;22.00;8.80;;;;;;;;;;5043322;28;20687;-86
2022/10/09 09:10:00;;;;;;;31.60;10.23;;;;;;;;;;5042736;28;20045;-86
2022/10/09 09:12:32;;;;;;;27.77;8.18;;;;;;;;;;5042983;28;20041;-86
2022/10/09 09:15:04;;;;;;;23.77;8.30;;;;;;;;;;5044490;28;20043;-87
2022/10/09 09:17:35;;;;;;;23.60;7.53;;;;;;;;;;5034975;28;20049;-87
2022/10/09 09:20:10;;;;;;;24.98;7.85;;;;;;;;;;5040687;28;20129;-86
2022/10/09 09:22:39;;;;;;;19.75;7.32;;;;;;;;;;5040597;28;20087;-86
2022/10/09 09:25:16;;;;;;;18.58;6.00;;;;;;;;;;5041719;28;20049;-85
2022/10/09 09:27:44;;;;;;;18.73;6.80;;;;;;;;;;5068034;28;20045;-87
2022/10/09 09:30:22;;;;;;;27.85;7.30;;;;;;;;;;5042478;28;20068;-87
2022/10/09 09:32:53;;;;;;;22.73;6.50;;;;;;;;;;5033639;28;20124;-86
2022/10/09 09:35:23;;;;;;;20.40;8.10;;;;;;;;;;5039501;28;20041;-84
2022/10/09 09:37:49;;;;;;;26.55;7.78;;;;;;;;;;5039159;28;20501;-85
2022/10/09 09:40:23;;;;;;;20.73;6.40;;;;;;;;;;5035852;28;20404;-85
2022/10/09 09:42:55;;;;;;;23.60;7.20;;;;;;;;;;5038066;28;20033;-84
2022/10/09 09:45:23;;;;;;;20.13;6.32;;;;;;;;;;5038127;28;20124;-85
2022/10/09 09:47:55;;;;;;;22.35;6.60;;;;;;;;;;5064844;28;20057;-85
2022/10/09 09:50:33;;;;;;;20.88;7.03;;;;;;;;;;5037182;28;20038;-85
2022/10/09 09:53:02;;;;;;;20.83;6.95;;;;;;;;;;5041605;28;20508;-86
2022/10/09 09:55:31;;;;;;;20.70;6.90;;;;;;;;;;5045121;28;20064;-85
2022/10/09 09:58:03;;;;;;;15.88;6.65;;;;;;;;;;5036461;28;20248;-86
2022/10/09 10:00:30;;;;;;;17.17;6.18;;;;;;;;;;5034640;28;20055;-86
2022/10/09 10:03:18;;;;;;;18.80;6.32;;;;;;;;;;5040973;28;20488;-85
2022/10/09 10:05:45;;;;;;;18.95;6.05;;;;;;;;;;5031944;28;20796;-86
2022/10/09 10:08:29;;;;;;;21.73;5.85;;;;;;;;;;5037048;28;20049;-85
2022/10/09 10:10:59;;;;;;;19.83;6.25;;;;;;;;;;5046469;28;20041;-86
2022/10/09 10:13:30;;;;;;;11.88;5.03;;;;;;;;;;5038405;28;20041;-85
2022/10/09 10:15:57;;;;;;;15.35;5.82;;;;;;;;;;5040672;28;20076;-84
2022/10/09 10:18:25;;;;;;;12.10;5.20;;;;;;;;;;5057388;28;20050;-85
2022/10/09 10:20:53;;;;;;;19.90;5.43;;;;;;;;;;5042388;28;20488;-85
2022/10/09 10:23:25;;;;;;;14.88;5.30;;;;;;;;;;5055658;28;20087;-86
2022/10/09 10:25:57;;;;;;;11.73;4.75;;;;;;;;;;5042103;28;20041;-86
2022/10/09 10:28:33;;;;;;;16.33;5.40;;;;;;;;;;5039091;28;20052;-86
2022/10/09 10:31:02;;;;;;;16.77;5.70;;;;;;;;;;5043189;28;20094;-87
2022/10/09 10:33:32;;;;;;;15.50;4.82;;;;;;;;;;5039669;28;20047;-87
2022/10/09 10:36:01;;;;;;;11.48;4.75;;;;;;;;;;5043465;28;20047;-86
2022/10/09 10:38:31;;;;;;;16.67;4.70;;;;;;;;;;5040815;28;20128;-87
2022/10/09 10:41:12;;;;;;;20.92;4.75;;;;;;;;;;5039661;28;20041;-86
2022/10/09 10:43:44;;;;;;;14.82;4.32;;;;;;;;;;5042361;28;20465;-87
2022/10/09 10:46:15;;;;;;;14.10;4.85;;;;;;;;;;5041697;28;20048;-86
2022/10/09 10:48:44;;;;;;;21.20;5.00;;;;;;;;;;5038949;28;20164;-87
2022/10/09 10:51:19;;;;;;;18.70;4.90;;;;;;;;;;5037899;28;20045;-87
2022/10/09 10:53:52;;;;;;;15.52;4.97;;;;;;;;;;5038819;28;20139;-87
2022/10/09 10:56:24;;;;;;;18.75;5.00;;;;;;;;;;5038345;28;20052;-86
2022/10/09 10:58:56;;;;;;;19.90;4.47;;;;;;;;;;5043986;28;20037;-86
2022/10/09 11:01:28;;;;;;;14.85;5.25;;;;;;;;;;5038705;28;20033;-86
2022/10/09 11:04:07;;;;;;;17.52;5.70;;;;;;;;;;5043850;28;20481;-86
2022/10/09 11:06:38;;;;;;;18.25;6.10;;;;;;;;;;5034933;28;20132;-85
2022/10/09 11:09:09;;;;;;;16.83;4.97;;;;;;;;;;5037125;28;20065;-86
2022/10/09 11:11:39;;;;;;;17.98;5.93;;;;;;;;;;5035366;28;20059;-86
2022/10/09 11:14:14;;;;;;;16.88;5.32;;;;;;;;;;5041993;28;20121;-86
2022/10/09 11:16:48;;;;;;;19.42;6.60;;;;;;;;;;5037394;28;20049;-87
2022/10/09 11:19:24;;;;;;;19.13;6.65;;;;;;;;;;5041227;28;20044;-85
2022/10/09 11:21:55;;;;;;;21.77;6.55;;;;;;;;;;5036641;28;20629;-86
2022/10/09 11:24:32;;;;;;;19.13;5.80;;;;;;;;;;5034912;28;20040;-87
2022/10/09 11:27:05;;;;;;;12.32;5.22;;;;;;;;;;5032170;28;20045;-86
2022/10/09 11:29:35;;;;;;;14.60;5.63;;;;;;;;;;5039467;28;20052;-86
2022/10/09 11:32:09;;;;;;;17.13;5.22;;;;;;;;;;5041297;28;20044;-85
2022/10/09 11:34:39;;;;;;;14.55;4.80;;;;;;;;;;5043226;28;20086;-86
2022/10/09 11:37:08;;;;;;;13.10;4.70;;;;;;;;;;5038784;28;20056;-86
2022/10/09 11:39:38;;;;;;;12.50;5.57;;;;;;;;;;5041888;28;20056;-86
2022/10/09 11:42:09;;;;;;;11.60;4.82;;;;;;;;;;5039853;28;20102;-86
2022/10/09 11:44:41;;;;;;;17.35;5.00;;;;;;;;;;5057035;28;20110;-86
2022/10/09 11:47:12;;;;;;;16.50;4.68;;;;;;;;;;5036803;28;20492;-86
2022/10/09 11:49:43;;;;;;;15.80;4.75;;;;;;;;;;5039551;28;20091;-86
2022/10/09 11:52:15;;;;;;;11.80;3.55;;;;;;;;;;5040659;28;20040;-86
2022/10/09 11:54:44;;;;;;;15.02;4.55;;;;;;;;;;5047813;28;20560;-87
2022/10/09 11:57:14;;;;;;;9.02;3.80;;;;;;;;;;5043765;28;20055;-87
2022/10/09 11:59:41;;;;;;;12.75;3.83;;;;;;;;;;5046766;28;20037;-86
2022/10/09 12:02:22;;;;;;;16.00;4.82;;;;;;;;;;5045734;28;20506;-87
2022/10/09 12:04:50;;;;;;;11.77;4.10;;;;;;;;;;5046975;28;20066;-86
2022/10/09 12:07:26;;;;;;;13.70;4.75;;;;;;;;;;5042321;28;20041;-86
2022/10/09 12:09:56;;;;;;;16.58;4.13;;;;;;;;;;5044979;28;20041;-85
2022/10/09 12:12:24;;;;;;;12.13;4.15;;;;;;;;;;5038923;28;20065;-86
2022/10/09 12:14:52;;;;;;;11.88;4.15;;;;;;;;;;5039213;28;20045;-86
2022/10/09 12:17:33;;;;;;;17.55;5.45;;;;;;;;;;5043503;28;20047;-86
2022/10/09 12:20:03;;;;;;;14.45;5.35;;;;;;;;;;5049831;28;20056;-86
2022/10/09 12:22:32;;;;;;;11.55;5.03;;;;;;;;;;5043292;28;20052;-87
2022/10/09 12:25:03;;;;;;;13.38;5.13;;;;;;;;;;5041269;28;20077;-86
2022/10/09 12:27:36;;;;;;;11.65;4.78;;;;;;;;;;5042402;28;20041;-86
2022/10/09 12:30:08;;;;;;;9.27;4.80;;;;;;;;;;5039041;28;20072;-87
2022/10/09 12:32:44;;;;;;;16.20;5.40;;;;;;;;;;5061099;28;20067;-86
2022/10/09 12:35:28;;;;;;;16.88;5.65;;;;;;;;;;5044161;28;20053;-86
2022/10/09 12:37:54;;;;;;;15.30;4.72;;;;;;;;;;5059522;28;20053;-86
2022/10/09 12:40:23;;;;;;;12.05;4.60;;;;;;;;;;5039062;28;20044;-85
2022/10/09 12:42:52;;;;;;;11.73;5.22;;;;;;;;;;5047054;28;20047;-87
2022/10/09 12:45:22;;;;;;;13.57;4.32;;;;;;;;;;5041509;28;20037;-86
2022/10/09 12:47:49;;;;;;;13.57;4.68;;;;;;;;;;5045939;28;20056;-87
2022/10/09 12:50:22;;;;;;;16.15;4.90;;;;;;;;;;5042378;28;20076;-86
2022/10/09 12:52:49;;;;;;;14.85;4.90;;;;;;;;;;5041977;28;20048;-87
2022/10/09 12:55:22;;;;;;;13.68;5.85;;;;;;;;;;5039926;28;20488;-86
2022/10/09 12:57:51;;;;;;;11.45;4.97;;;;;;;;;;5061897;28;20068;-86
2022/10/09 13:00:20;;;;;;;18.88;4.72;;;;;;;;;;5043236;28;20056;-85
2022/10/09 13:02:49;;;;;;;10.77;5.32;;;;;;;;;;5039258;28;20073;-86
2022/10/09 13:05:16;;;;;;;14.60;6.28;;;;;;;;;;5078556;28;20899;-86
2022/10/09 13:07:50;;;;;;;13.52;5.10;;;;;;;;;;5044997;28;20104;-86
2022/10/09 13:10:18;;;;;;;12.80;5.88;;;;;;;;;;5048961;28;20182;-85
2022/10/09 13:12:49;;;;;;;10.55;5.18;;;;;;;;;;5046338;28;20110;-85
2022/10/09 13:15:29;;;;;;;16.75;5.47;;;;;;;;;;5070267;28;20049;-86
2022/10/09 13:17:56;;;;;;;17.40;5.90;;;;;;;;;;5045344;28;20037;-85
2022/10/09 13:20:24;;;;;;;12.13;5.47;;;;;;;;;;5045003;28;20437;-86
2022/10/09 13:22:55;;;;;;;10.68;5.07;;;;;;;;;;5039436;28;20045;-86
2022/10/09 13:25:21;;;;;;;14.10;5.70;;;;;;;;;;5042583;28;20041;-85
2022/10/09 13:27:48;;;;;;;14.55;5.10;;;;;;;;;;5039049;28;20069;-85
2022/10/09 13:30:15;;;;;;;11.68;4.30;;;;;;;;;;5037885;28;20040;-85
2022/10/09 13:32:43;;;;;;;13.77;5.15;;;;;;;;;;5036825;28;20045;-85
2022/10/09 13:35:09;;;;;;;14.57;4.30;;;;;;;;;;5035486;28;20041;-85
2022/10/09 13:37:36;;;;;;;15.57;4.45;;;;;;;;;;5037543;28;20033;-85
2022/10/09 13:40:05;;;;;;;13.27;4.85;;;;;;;;;;5042050;28;20036;-86
2022/10/09 13:42:36;;;;;;;11.45;4.75;;;;;;;;;;5039739;28;20060;-86
2022/10/09 13:45:03;;;;;;;11.98;5.40;;;;;;;;;;5045154;28;20120;-85
2022/10/09 13:47:32;;;;;;;19.52;4.97;;;;;;;;;;5042517;28;20029;-86
2022/10/09 13:50:03;;;;;;;15.32;4.30;;;;;;;;;;5039503;28;20511;-85
2022/10/09 13:52:30;;;;;;;11.63;3.72;;;;;;;;;;5042975;28;20102;-86
2022/10/09 13:54:57;;;;;;;8.63;3.65;;;;;;;;;;5040667;28;20041;-84
2022/10/09 13:57:24;;;;;;;11.63;3.75;;;;;;;;;;5043230;28;20032;-85
2022/10/09 13:59:50;;;;;;;15.43;3.63;;;;;;;;;;5033758;28;21279;-86
2022/10/09 14:02:20;;;;;;;14.05;3.15;;;;;;;;;;5038790;28;20049;-85
2022/10/09 14:04:47;;;;;;;9.55;3.63;;;;;;;;;;5040637;28;20076;-85
2022/10/09 14:07:15;;;;;;;14.82;3.05;;;;;;;;;;5043258;28;20582;-85
2022/10/09 14:09:45;;;;;;;9.93;3.03;;;;;;;;;;5045797;28;20037;-85
2022/10/09 14:12:11;;;;;;;10.43;3.45;;;;;;;;;;5037458;28;20427;-84
2022/10/09 14:14:38;;;;;;;24.90;3.55;;;;;;;;;;5038844;28;20037;-85
2022/10/09 14:17:06;;;;;;;11.07;2.95;;;;;;;;;;5036880;28;20079;-85
2022/10/09 14:19:33;;;;;;;7.75;2.88;;;;;;;;;;5041817;28;20116;-85
2022/10/09 14:21:59;;;;;;;11.23;2.90;;;;;;;;;;5039396;28;20049;-85
2022/10/09 14:24:28;;;;;;;5.03;2.45;;;;;;;;;;5037211;28;20051;-85
2022/10/09 14:26:54;;;;;;;8.15;2.40;;;;;;;;;;5041376;28;20444;-86
2022/10/09 14:29:21;;;;;;;12.85;2.70;;;;;;;;;;5044063;28;20029;-85
2022/10/09 14:31:49;;;;;;;10.52;3.17;;;;;;;;;;5045461;28;20041;-85
2022/10/09 14:34:16;;;;;;;12.68;2.88;;;;;;;;;;5039886;28;20040;-85
2022/10/09 14:36:44;;;;;;;10.35;3.47;;;;;;;;;;5042497;28;20103;-86
2022/10/09 14:39:12;;;;;;;9.30;2.80;;;;;;;;;;5038702;28;20460;-86
2022/10/09 14:41:42;;;;;;;6.38;3.08;;;;;;;;;;5033862;28;20064;-86
2022/10/09 14:44:09;;;;;;;8.77;3.13;;;;;;;;;;5035222;28;20999;-86
2022/10/09 14:46:38;;;;;;;11.77;4.10;;;;;;;;;;5031726;28;20042;-86
2022/10/09 14:49:09;;;;;;;16.90;3.80;;;;;;;;;;5071783;28;20040;-86
2022/10/09 14:51:37;;;;;;;12.27;4.43;;;;;;;;;;5033556;28;20119;-85
2022/10/09 14:54:04;;;;;;;14.45;4.30;;;;;;;;;;5043779;28;20052;-86
2022/10/09 14:56:30;;;;;;;9.98;3.80;;;;;;;;;;5039940;28;20125;-85
2022/10/09 14:59:00;;;;;;;11.65;3.90;;;;;;;;;;5052725;28;20079;-86
2022/10/09 15:01:30;;;;;;;7.47;3.13;;;;;;;;;;5038301;28;20069;-86
2022/10/09 15:03:57;;;;;;;13.50;3.38;;;;;;;;;;5039390;28;20250;-86
2022/10/09 15:06:23;;;;;;;10.25;3.00;;;;;;;;;;5038190;28;20040;-85
2022/10/09 15:08:51;;;;;;;12.55;3.60;;;;;;;;;;5046467;28;20055;-86
2022/10/09 15:11:21;;;;;;;9.88;2.95;;;;;;;;;;5038546;28;20462;-86
2022/10/09 15:13:47;;;;;;;12.55;3.13;;;;;;;;;;5041858;28;20037;-87
2022/10/09 15:16:19;;;;;;;7.95;2.63;;;;;;;;;;5039043;28;20049;-86
2022/10/09 15:18:47;;;;;;;11.30;2.33;;;;;;;;;;5040947;28;20055;-86
2022/10/09 15:21:20;;;;;;;9.85;2.63;;;;;;;;;;5060284;28;20378;-86
2022/10/09 15:23:49;;;;;;;7.63;2.63;;;;;;;;;;5038134;28;20130;-86
2022/10/09 15:26:26;;;;;;;;;;;;;;;;;;;;;
2022/10/09 15:28:53;;;;;;;8.65;2.53;;;;;;;;;;5036379;28;20037;-86
2022/10/09 15:31:22;;;;;;;8.40;3.00;;;;;;;;;;5037200;28;20056;-87
2022/10/09 15:33:52;;;;;;;7.88;2.30;;;;;;;;;;5040917;28;20045;-85
2022/10/09 15:36:19;;;;;;;9.65;2.80;;;;;;;;;;5035773;28;20037;-86
2022/10/09 15:38:46;;;;;;;7.30;2.40;;;;;;;;;;5071287;28;20051;-85
2022/10/09 15:41:21;;;;;;;12.02;2.53;;;;;;;;;;5034405;28;20048;-86
2022/10/09 15:43:47;;;;;;;7.32;2.60;;;;;;;;;;5046090;28;20060;-86
2022/10/09 15:46:14;;;;;;;7.35;2.45;;;;;;;;;;5040850;28;20047;-86
2022/10/09 15:48:45;;;;;;;8.18;2.30;;;;;;;;;;5043507;28;20462;-85
2022/10/09 15:51:13;;;;;;;5.95;2.08;;;;;;;;;;5055482;28;20042;-86
2022/10/09 15:53:41;;;;;;;7.97;2.20;;;;;;;;;;5044724;28;20045;-87
2022/10/09 15:56:08;;;;;;;6.38;2.20;;;;;;;;;;5039932;28;20538;-85
2022/10/09 15:58:35;;;;;;;10.85;2.42;;;;;;;;;;5041141;28;20167;-85
2022/10/09 16:01:02;;;;;;;9.95;2.85;;;;;;;;;;5043910;28;20048;-86
2022/10/09 16:03:35;;;;;;;9.20;2.55;;;;;;;;;;5042691;28;20053;-86
2022/10/09 16:06:03;;;;;;;13.70;2.58;;;;;;;;;;5035219;28;20056;-88
2022/10/09 16:08:32;;;;;;;7.28;2.67;;;;;;;;;;5040937;28;20045;-86
2022/10/09 16:10:59;;;;;;;7.55;2.25;;;;;;;;;;5042442;28;20044;-87
2022/10/09 16:13:26;;;;;;;7.13;1.92;;;;;;;;;;5041339;28;20103;-87
2022/10/09 16:15:53;;;;;;;6.50;2.38;;;;;;;;;;5038483;28;20077;-87
2022/10/09 16:18:21;;;;;;;9.23;2.50;;;;;;;;;;5036936;28;20048;-87
2022/10/09 16:20:49;;;;;;;10.77;3.40;;;;;;;;;;5042756;28;20041;-87
2022/10/09 16:23:17;;;;;;;11.93;3.47;;;;;;;;;;5041641;28;20114;-86
2022/10/09 16:25:44;;;;;;;13.82;3.40;;;;;;;;;;5045122;28;20043;-87
2022/10/09 16:28:12;;;;;;;7.20;2.40;;;;;;;;;;5038320;28;20082;-86
2022/10/09 16:30:39;;;;;;;7.25;2.90;;;;;;;;;;5057612;28;20049;-86
2022/10/09 16:33:05;;;;;;;10.82;2.95;;;;;;;;;;5040429;28;20120;-86